Zim Vancouver — A8LK5 — position and weather

sailwx.info

Track history (hours):
 
Tides and Currents Weather Stations Pressure Air Temp Water Temp Dewpoint Dewpoint Depression Visibility Wind Speed Wind Dir Waves Ship Positions

Zim Vancouver

Last reported at 2015-Jul-29 15:28 UTC. Time now 2015-Jul-29 18:01 UTC.
Position N 30°25' E 122°50'.

Length 260 m; draft 11.9 m.

Type: Ship. MMSI: 636013214.

Date/timePositionNaut miles runAvg speedWind from/ knotsBaromVisibWave heightAir tempDewpointWater temp
2015-Jul-29 15:28N 30°25' E 122°50'1617.6
2015-Jul-29 14:33N 30°30' E 122°32'1514.8
2015-Jul-29 13:32N 30°33' E 122°15'10 9.9
2015-Jul-29 12:33N 30°37' E 122°05'0 0.0
2015-Jul-29 11:19N 30°37' E 122°05'0 0.0
2015-Jul-29 10:31N 30°37' E 122°05'0 0.0
2015-Jul-29 09:19N 30°37' E 122°05'0 0.0
2015-Jul-29 08:04N 30°37' E 122°05'0 0.1
2015-Jul-29 07:16N 30°37' E 122°05'0 0.0
2015-Jul-29 06:31N 30°37' E 122°05'0 0.0
2015-Jul-29 01:22N 30°37' E 122°05'0 0.2
2015-Jul-29 00:31N 30°36' E 122°05'1111.1
2015-Jul-28 23:34N 30°33' E 122°16'5 4.8
2015-Jul-28 22:34N 30°32' E 122°22'7 6.5
2015-Jul-28 21:29N 30°29' E 122°29'0 0.1
2015-Jul-28 20:23N 30°29' E 122°29'0 0.1
2015-Jul-28 19:29N 30°29' E 122°29'0 0.0
2015-Jul-28 17:14N 30°29' E 122°29'0 0.0
2015-Jul-28 16:29N 30°29' E 122°29'0 0.0
2015-Jul-28 15:23N 30°29' E 122°29'0 0.1
2015-Jul-28 14:29N 30°29' E 122°29'0 0.1
2015-Jul-28 11:11N 30°29' E 122°29'0 0.0
2015-Jul-28 10:08N 30°29' E 122°29'0 0.2
2015-Jul-28 08:11N 30°29' E 122°29'0 0.0
2015-Jul-28 07:23N 30°29' E 122°29'0 0.0
2015-Jul-28 06:20N 30°29' E 122°29'0 0.1
2015-Jul-28 00:20N 30°29' E 122°29'1 1.0
2015-Jul-27 23:27N 30°30' E 122°30'6 6.4
2015-Jul-27 22:33N 30°30' E 122°36'7 6.6
2015-Jul-27 21:32N 30°29' E 122°44'1010.3
2015-Jul-27 20:33N 30°22' E 122°53'1212.2
2015-Jul-27 19:34N 30°13' E 123°02'1111.3
2015-Jul-27 18:33N 30°03' E 122°55'1212.2
2015-Jul-27 17:33N 29°55' E 122°45'1212.1
2015-Jul-27 16:34N 29°47' E 122°35'1211.7
2015-Jul-27 15:33N 29°44' E 122°21'1211.7
2015-Jul-27 14:33N 29°52' E 122°11'1413.5
2015-Jul-27 13:33N 29°58' E 121°57'6 5.5
2015-Jul-27 12:28N 29°57' E 121°50'0 0.0
2015-Jul-27 07:16N 29°57' E 121°50'0 0.0
2015-Jul-27 06:22N 29°57' E 121°50'0 0.0
2015-Jul-27 04:22N 29°57' E 121°50'0 0.0
2015-Jul-27 03:16N 29°57' E 121°50'0 0.0
2015-Jul-27 01:17N 29°57' E 121°50'0 0.0
2015-Jul-27 00:23N 29°57' E 121°50'0 0.0
2015-Jul-26 23:17N 29°57' E 121°50'0 0.0
2015-Jul-26 21:23N 29°57' E 121°50'0 0.0
2015-Jul-26 20:14N 29°57' E 121°50'0 0.5
2015-Jul-26 19:33N 29°57' E 121°51'8 8.5
2015-Jul-26 18:33N 29°57' E 122°00'1212.0
2015-Jul-26 17:33N 29°51' E 122°12'10 9.9
2015-Jul-26 16:33N 29°45' E 122°22'1111.0
2015-Jul-26 15:33N 29°45' E 122°35'1212.0
2015-Jul-26 14:33N 29°50' E 122°47'2416.4
2015-Jul-26 13:04N 30°06' E 123°08'1217.7
2015-Jul-26 12:24N 30°14' E 123°19'5917.9
2015-Jul-26 09:07N 30°54' E 124°07'1218.2
2015-Jul-26 08:29N 31°02' E 124°18'  
2015-Jul-21 14:32N 24°19' E 118°54'4314.1
2015-Jul-21 11:29N 23°51' E 118°18'2512.8
2015-Jul-21 09:33N 23°35' E 117°57'1312.7
2015-Jul-21 08:31N 23°27' E 117°46'19413.4
2015-Jul-20 18:06N 22°08' E 114°34'814.0
2015-Jul-20 17:30N 22°07' E 114°25'1511.6
2015-Jul-20 16:14N 22°12' E 114°10'6 9.3
2015-Jul-20 15:33N 22°17' E 114°06'11 9.9
2015-Jul-20 14:25N 22°22' E 113°55'6 6.7
2015-Jul-20 13:33N 22°27' E 113°53'5 0.9
2015-Jul-20 07:26N 22°32' E 113°51'0 0.0
2015-Jul-20 02:04N 22°32' E 113°51'4 5.9
2015-Jul-20 01:27N 22°29' E 113°52'12 9.7
2015-Jul-20 00:10N 22°21' E 114°03'1311.5
2015-Jul-19 23:04N 22°12' E 114°11'5 8.8
2015-Jul-19 22:30N 22°09' E 114°16'8 8.2
2015-Jul-19 21:33N 22°06' E 114°23'  
Track history (hours):
 
Tides and Currents Weather Stations Pressure Air Temp Water Temp Dewpoint Dewpoint Depression Visibility Wind Speed Wind Dir Waves Ship Positions

Zim Vancouver

Last reported at 2015-Jul-29 15:28 UTC. Time now 2015-Jul-29 18:01 UTC.
Position N 30°25' E 122°50'.

Length 260 m; draft 11.9 m.

Type: Ship. MMSI: 636013214.

Date/timePositionNaut miles runAvg speedWind from/ knotsBaromVisibWave heightAir tempDewpointWater temp
2015-Jul-29 15:28N 30°25' E 122°50'1617.6
2015-Jul-29 14:33N 30°30' E 122°32'1514.8
2015-Jul-29 13:32N 30°33' E 122°15'10 9.9
2015-Jul-29 12:33N 30°37' E 122°05'0 0.0
2015-Jul-29 11:19N 30°37' E 122°05'0 0.0
2015-Jul-29 10:31N 30°37' E 122°05'0 0.0
2015-Jul-29 09:19N 30°37' E 122°05'0 0.0
2015-Jul-29 08:04N 30°37' E 122°05'0 0.1
2015-Jul-29 07:16N 30°37' E 122°05'0 0.0
2015-Jul-29 06:31N 30°37' E 122°05'0 0.0
2015-Jul-29 01:22N 30°37' E 122°05'0 0.2
2015-Jul-29 00:31N 30°36' E 122°05'1111.1
2015-Jul-28 23:34N 30°33' E 122°16'5 4.8
2015-Jul-28 22:34N 30°32' E 122°22'7 6.5
2015-Jul-28 21:29N 30°29' E 122°29'0 0.1
2015-Jul-28 20:23N 30°29' E 122°29'0 0.1
2015-Jul-28 19:29N 30°29' E 122°29'0 0.0
2015-Jul-28 17:14N 30°29' E 122°29'0 0.0
2015-Jul-28 16:29N 30°29' E 122°29'0 0.0
2015-Jul-28 15:23N 30°29' E 122°29'0 0.1
2015-Jul-28 14:29N 30°29' E 122°29'0 0.1
2015-Jul-28 11:11N 30°29' E 122°29'0 0.0
2015-Jul-28 10:08N 30°29' E 122°29'0 0.2
2015-Jul-28 08:11N 30°29' E 122°29'0 0.0
2015-Jul-28 07:23N 30°29' E 122°29'0 0.0
2015-Jul-28 06:20N 30°29' E 122°29'0 0.1
2015-Jul-28 00:20N 30°29' E 122°29'1 1.0
2015-Jul-27 23:27N 30°30' E 122°30'6 6.4
2015-Jul-27 22:33N 30°30' E 122°36'7 6.6
2015-Jul-27 21:32N 30°29' E 122°44'1010.3
2015-Jul-27 20:33N 30°22' E 122°53'1212.2
2015-Jul-27 19:34N 30°13' E 123°02'1111.3
2015-Jul-27 18:33N 30°03' E 122°55'1212.2
2015-Jul-27 17:33N 29°55' E 122°45'1212.1
2015-Jul-27 16:34N 29°47' E 122°35'1211.7
2015-Jul-27 15:33N 29°44' E 122°21'1211.7
2015-Jul-27 14:33N 29°52' E 122°11'1413.5
2015-Jul-27 13:33N 29°58' E 121°57'6 5.5
2015-Jul-27 12:28N 29°57' E 121°50'0 0.0
2015-Jul-27 07:16N 29°57' E 121°50'0 0.0
2015-Jul-27 06:22N 29°57' E 121°50'0 0.0
2015-Jul-27 04:22N 29°57' E 121°50'0 0.0
2015-Jul-27 03:16N 29°57' E 121°50'0 0.0
2015-Jul-27 01:17N 29°57' E 121°50'0 0.0
2015-Jul-27 00:23N 29°57' E 121°50'0 0.0
2015-Jul-26 23:17N 29°57' E 121°50'0 0.0
2015-Jul-26 21:23N 29°57' E 121°50'0 0.0
2015-Jul-26 20:14N 29°57' E 121°50'0 0.5
2015-Jul-26 19:33N 29°57' E 121°51'8 8.5
2015-Jul-26 18:33N 29°57' E 122°00'1212.0
2015-Jul-26 17:33N 29°51' E 122°12'10 9.9
2015-Jul-26 16:33N 29°45' E 122°22'1111.0
2015-Jul-26 15:33N 29°45' E 122°35'1212.0
2015-Jul-26 14:33N 29°50' E 122°47'2416.4
2015-Jul-26 13:04N 30°06' E 123°08'1217.7
2015-Jul-26 12:24N 30°14' E 123°19'5917.9
2015-Jul-26 09:07N 30°54' E 124°07'1218.2
2015-Jul-26 08:29N 31°02' E 124°18'  
2015-Jul-21 14:32N 24°19' E 118°54'4314.1
2015-Jul-21 11:29N 23°51' E 118°18'2512.8
2015-Jul-21 09:33N 23°35' E 117°57'1312.7
2015-Jul-21 08:31N 23°27' E 117°46'19413.4
2015-Jul-20 18:06N 22°08' E 114°34'814.0
2015-Jul-20 17:30N 22°07' E 114°25'1511.6
2015-Jul-20 16:14N 22°12' E 114°10'6 9.3
2015-Jul-20 15:33N 22°17' E 114°06'11 9.9
2015-Jul-20 14:25N 22°22' E 113°55'6 6.7
2015-Jul-20 13:33N 22°27' E 113°53'5 0.9
2015-Jul-20 07:26N 22°32' E 113°51'0 0.0
2015-Jul-20 02:04N 22°32' E 113°51'4 5.9
2015-Jul-20 01:27N 22°29' E 113°52'12 9.7
2015-Jul-20 00:10N 22°21' E 114°03'1311.5
2015-Jul-19 23:04N 22°12' E 114°11'5 8.8
2015-Jul-19 22:30N 22°09' E 114°16'8 8.2
2015-Jul-19 21:33N 22°06' E 114°23'  

Dump ship's entire track history